Time;durP1;ratioP1;P1;durP2;ratioP2;P2;SDS_P1;SDS_P2;PMS_P1;PMS_P2;Temp;Humidity;BMP_temperature;BMP_pressure;BME280_temperature;BME280_humidity;BME280_pressure;Samples;Min_cycle;Max_cycle;Signal;HPM_P1;HPM_P2
2023/03/24 00:01:09;;;;;;;2.80;1.83;;;6.90;99.90;6.10;99333;;;;593583;238;24046;-77
2023/03/24 00:03:35;;;;;;;2.60;2.27;;;6.90;99.90;6.10;99342;;;;593043;238;24080;-77
2023/03/24 00:06:01;;;;;;;2.43;1.87;;;6.90;99.90;6.10;99336;;;;593331;238;24075;-75
2023/03/24 00:08:34;;;;;;;2.93;2.07;;;6.90;99.90;6.10;99342;;;;593505;238;24059;-77
2023/03/24 00:11:05;;;;;;;2.77;2.27;;;6.90;99.90;6.00;99344;;;;602663;238;24045;-77
2023/03/24 00:13:36;;;;;;;4.77;2.30;;;6.90;99.90;6.00;99343;;;;593126;238;24043;-77
2023/03/24 00:16:08;;;;;;;6.12;3.72;;;6.80;99.90;6.00;99343;;;;588582;238;34925;-77
2023/03/24 00:18:39;;;;;;;3.50;2.47;;;6.80;99.90;6.00;99355;;;;593610;238;24039;-76
2023/03/24 00:21:10;;;;;;;6.43;2.30;;;6.80;99.90;6.00;99357;;;;593290;238;24028;-76
2023/03/24 00:23:34;;;;;;;3.57;2.10;;;6.80;99.90;5.90;99346;;;;593227;238;24040;-78
2023/03/24 00:26:08;;;;;;;2.20;1.83;;;6.80;99.90;5.90;99339;;;;593692;238;24031;-77
2023/03/24 00:28:36;;;;;;;3.17;2.07;;;6.70;99.90;5.90;99346;;;;593422;238;24050;-77
2023/03/24 00:31:07;;;;;;;3.77;2.43;;;6.70;99.90;5.90;99344;;;;593753;238;24016;-76
2023/03/24 00:33:36;;;;;;;4.50;2.70;;;6.70;99.90;5.80;99340;;;;591332;238;24086;-77
2023/03/24 00:36:03;;;;;;;5.47;2.23;;;6.70;99.90;5.80;99331;;;;594776;237;24033;-79
2023/03/24 00:38:28;;;;;;;3.57;2.83;;;6.70;99.90;5.80;99330;;;;594561;238;24092;-79
2023/03/24 00:40:55;;;;;;;3.03;2.33;;;6.70;99.90;5.80;99335;;;;594464;238;24037;-77
2023/03/24 00:43:27;;;;;;;3.20;2.70;;;6.60;99.90;5.80;99332;;;;594431;238;24027;-76
2023/03/24 00:45:53;;;;;;;5.70;3.23;;;6.60;99.90;5.80;99335;;;;594021;238;24083;-80
2023/03/24 00:48:23;;;;;;;4.70;2.80;;;6.60;99.90;5.70;99327;;;;593229;238;24036;-77
2023/03/24 00:50:49;;;;;;;5.67;3.33;;;6.50;99.90;5.70;99326;;;;594053;238;24028;-76
2023/03/24 00:53:20;;;;;;;5.47;3.67;;;6.50;99.90;5.70;99329;;;;593992;238;24017;-77
2023/03/24 00:55:48;;;;;;;3.47;3.00;;;6.50;99.90;5.70;99322;;;;591589;238;24033;-76
2023/03/24 00:58:17;;;;;;;4.83;3.30;;;6.50;99.90;5.70;99318;;;;593662;238;24248;-76
2023/03/24 01:00:43;;;;;;;4.80;3.70;;;6.50;99.90;5.60;99322;;;;594068;238;24092;-75
2023/03/24 01:03:11;;;;;;;7.17;3.97;;;6.40;99.90;5.60;99325;;;;593965;238;24028;-76
2023/03/24 01:05:41;;;;;;;8.45;5.60;;;6.40;99.90;5.50;99326;;;;588518;238;34971;-75
2023/03/24 01:08:10;;;;;;;8.70;4.53;;;6.40;99.90;5.50;99339;;;;593431;238;25078;-76
2023/03/24 01:10:35;;;;;;;6.53;4.03;;;6.40;99.90;5.50;99327;;;;591115;238;24090;-78
2023/03/24 01:13:07;;;;;;;6.83;3.90;;;6.30;99.90;5.50;99327;;;;593309;238;24081;-76
2023/03/24 01:15:32;;;;;;;6.93;4.63;;;6.30;99.90;5.40;99320;;;;593280;238;24197;-77
2023/03/24 01:18:02;;;;;;;5.30;3.97;;;6.30;99.90;5.40;99321;;;;593608;238;24031;-77
2023/03/24 01:20:31;;;;;;;3.90;3.50;;;6.20;99.90;5.40;99317;;;;582676;243;24059;-77
2023/03/24 01:22:55;;;;;;;5.93;4.37;;;6.20;99.90;5.40;99323;;;;591652;243;24063;-76
2023/03/24 01:25:23;;;;;;;6.87;4.63;;;6.20;99.90;5.30;99319;;;;582887;243;24189;-76
2023/03/24 01:27:54;;;;;;;6.47;4.80;;;6.20;99.90;5.30;99318;;;;593619;238;24093;-77
2023/03/24 01:30:18;;;;;;;5.10;4.10;;;6.10;99.90;5.30;99322;;;;582550;243;24075;-76
2023/03/24 01:32:46;;;;;;;5.43;4.27;;;6.10;99.90;5.30;99324;;;;582693;243;24091;-76
2023/03/24 01:35:14;;;;;;;8.10;5.03;;;6.20;99.90;5.30;99323;;;;582808;243;24063;-78
2023/03/24 01:37:42;;;;;;;6.30;4.80;;;6.10;99.90;5.30;99321;;;;593651;238;24060;-76
2023/03/24 01:40:10;;;;;;;6.90;5.83;;;6.20;99.90;5.30;99316;;;;582852;243;24093;-76
2023/03/24 01:42:42;;;;;;;6.37;4.63;;;6.20;99.90;5.40;99316;;;;596421;238;24177;-77
2023/03/24 01:45:39;;;;;;;7.63;4.90;;;6.20;99.90;5.40;99309;;;;591546;243;24093;-76
2023/03/24 01:48:15;;;;;;;8.43;5.27;;;6.20;99.90;5.40;99313;;;;574111;247;24091;-76
2023/03/24 01:50:43;;;;;;;9.07;5.00;;;6.20;99.90;5.40;99318;;;;580171;242;24098;-75
2023/03/24 01:53:14;;;;;;;10.67;4.73;;;6.30;99.90;5.40;99312;;;;592681;242;24153;-76
2023/03/24 01:55:39;;;;;;;6.47;4.70;;;6.20;99.90;5.40;99321;;;;592158;242;24071;-77
2023/03/24 01:58:07;;;;;;;10.03;5.57;;;6.30;99.90;5.40;99310;;;;593999;238;25406;-80
2023/03/24 02:00:37;;;;;;;7.67;5.63;;;6.30;99.90;5.40;99315;;;;582326;243;24162;-78
2023/03/24 02:03:03;;;;;;;8.93;5.47;;;6.30;99.90;5.40;99319;;;;593661;238;24125;-76
2023/03/24 02:05:30;;;;;;;7.13;5.33;;;6.30;99.90;5.50;99309;;;;582682;242;24091;-81
2023/03/24 02:08:07;;;;;;;7.77;5.73;;;6.30;99.90;5.50;99300;;;;582640;242;24073;-79
2023/03/24 02:10:35;;;;;;;9.77;5.13;;;6.30;99.90;5.50;99312;;;;578977;244;24141;-80
2023/03/24 02:13:06;;;;;;;8.30;5.50;;;6.30;99.90;5.50;99309;;;;593718;238;24081;-79
2023/03/24 02:15:34;;;;;;;7.90;5.80;;;6.40;99.90;5.50;99306;;;;593231;238;25092;-78
2023/03/24 02:18:20;;;;;;;13.60;6.17;;;6.30;99.90;5.50;99311;;;;591759;238;24025;-77
2023/03/24 02:21:30;;;;;;;8.00;5.90;;;6.40;99.90;5.50;99298;;;;594017;238;24013;-79
2023/03/24 02:23:58;;;;;;;6.60;4.93;;;6.40;99.90;5.60;99320;;;;593551;238;24029;-77
2023/03/24 02:26:51;;;;;;;6.30;5.00;;;6.40;99.90;5.50;99317;;;;593188;238;24063;-79
2023/03/24 02:29:42;;;;;;;6.77;5.30;;;6.40;99.90;5.50;99321;;;;597762;238;24017;-77
2023/03/24 02:32:38;;;;;;;7.23;5.63;;;6.40;99.90;5.50;99310;;;;593677;238;24107;-78
2023/03/24 02:35:19;;;;;;;10.63;6.40;;;6.30;99.90;5.50;99311;;;;593042;238;24045;-77
2023/03/24 02:38:17;;;;;;;7.57;6.53;;;6.30;99.90;5.50;99307;;;;593630;238;24006;-78
2023/03/24 02:41:03;;;;;;;9.53;5.63;;;6.30;99.90;5.50;99300;;;;593675;238;24035;-79
2023/03/24 02:43:52;;;;;;;14.40;9.38;;;6.30;99.90;5.50;99306;;;;588493;238;34990;-79
2023/03/24 02:46:22;;;;;;;9.37;6.47;;;6.30;99.90;5.50;99295;;;;593746;238;24034;-79
2023/03/24 02:49:08;;;;;;;7.10;5.10;;;6.30;99.90;5.50;99291;;;;593629;238;24013;-79
2023/03/24 02:51:39;;;;;;;7.97;5.43;;;6.30;99.90;5.50;99296;;;;593006;238;24067;-80
2023/03/24 02:54:16;;;;;;;8.37;5.73;;;6.30;99.90;5.50;99289;;;;590957;238;24056;-79
2023/03/24 02:57:05;;;;;;;9.60;6.17;;;6.30;99.90;5.40;99290;;;;593613;238;24020;-79
2023/03/24 02:59:36;;;;;;;10.23;7.00;;;6.30;99.90;5.40;99288;;;;594638;238;24034;-79
2023/03/24 03:02:08;;;;;;;12.17;6.63;;;6.20;99.90;5.50;99291;;;;591721;238;24065;-79
2023/03/24 03:04:38;;;;;;;8.80;5.90;;;6.30;99.90;5.50;99283;;;;593749;238;24040;-79
2023/03/24 03:07:08;;;;;;;6.43;5.30;;;6.30;99.90;5.50;99272;;;;593892;238;24036;-82
2023/03/24 03:09:34;;;;;;;10.37;6.60;;;6.30;99.90;5.50;99279;;;;593701;238;24065;-80
2023/03/24 03:12:03;;;;;;;11.30;6.47;;;6.40;99.90;5.50;99277;;;;591603;238;24033;-77
2023/03/24 03:14:45;;;;;;;9.63;6.07;;;6.30;99.90;5.50;99275;;;;591731;238;24036;-77
2023/03/24 03:17:19;;;;;;;9.87;6.57;;;6.40;99.90;5.50;99274;;;;590684;238;24046;-77
2023/03/24 03:19:49;;;;;;;11.03;6.60;;;6.40;99.90;5.60;99271;;;;593980;238;24025;-77
2023/03/24 03:22:18;;;;;;;12.20;7.00;;;6.40;99.90;5.60;99266;;;;591652;238;24232;-78
2023/03/24 03:24:43;;;;;;;8.97;6.50;;;6.40;99.90;5.60;99268;;;;593844;238;24099;-77
2023/03/24 03:27:30;;;;;;;8.80;6.47;;;6.40;99.90;5.60;99263;;;;591731;238;24021;-78
2023/03/24 03:30:02;;;;;;;11.80;6.27;;;6.40;99.90;5.60;99271;;;;593947;238;24065;-77
2023/03/24 03:32:30;;;;;;;10.60;6.37;;;6.50;99.90;5.70;99272;;;;593632;238;24133;-77
2023/03/24 03:35:10;;;;;;;8.93;6.60;;;6.50;99.90;5.70;99265;;;;591566;238;24052;-77
2023/03/24 03:37:52;;;;;;;11.73;6.80;;;6.50;99.90;5.70;99261;;;;593671;238;24019;-77
2023/03/24 03:40:20;;;;;;;14.30;7.03;;;6.60;99.90;5.80;99249;;;;593401;238;24039;-77
2023/03/24 03:42:51;;;;;;;14.63;6.43;;;6.60;99.90;5.80;99245;;;;591282;238;24037;-76
2023/03/24 03:45:16;;;;;;;11.00;7.03;;;6.60;99.90;5.80;99246;;;;593283;238;24083;-75
2023/03/24 03:47:48;;;;;;;15.10;6.70;;;6.70;99.90;5.90;99255;;;;593663;238;24065;-77
2023/03/24 03:50:15;;;;;;;10.20;6.10;;;6.70;99.90;5.90;99251;;;;593474;238;24046;-77
2023/03/24 03:52:43;;;;;;;8.40;6.83;;;6.70;99.90;6.00;99249;;;;593293;238;24032;-77
2023/03/24 03:55:11;;;;;;;11.33;6.63;;;6.80;99.90;6.00;99256;;;;593484;238;24088;-77
2023/03/24 03:57:38;;;;;;;7.93;5.53;;;6.80;99.90;6.00;99252;;;;591356;238;24109;-76
2023/03/24 04:00:10;;;;;;;11.40;6.53;;;6.90;99.90;6.00;99253;;;;593426;238;24121;-77
2023/03/24 04:02:56;;;;;;;14.10;7.00;;;6.80;99.90;6.10;99247;;;;602524;238;24076;-76
2023/03/24 04:05:33;;;;;;;13.23;7.93;;;6.90;99.90;6.10;99239;;;;588425;238;24037;-76
2023/03/24 04:08:16;;;;;;;14.07;6.40;;;7.00;99.90;6.20;99234;;;;593244;238;24028;-77
2023/03/24 04:11:24;;;;;;;14.57;8.67;;;6.90;99.90;6.20;99231;;;;595338;237;24083;-76
2023/03/24 04:14:03;;;;;;;12.30;7.03;;;7.00;99.90;6.20;99237;;;;594754;238;24070;-77
2023/03/24 04:16:38;;;;;;;11.00;7.23;;;7.00;99.90;6.20;99225;;;;589248;238;24066;-77
2023/03/24 04:19:32;;;;;;;12.97;6.30;;;7.00;99.90;6.20;99210;;;;593689;238;24056;-77
2023/03/24 04:22:15;;;;;;;9.17;6.70;;;7.00;99.90;6.20;99218;;;;593961;238;24053;-76
2023/03/24 04:24:55;;;;;;;10.27;6.20;;;7.00;99.90;6.30;99218;;;;594217;238;24047;-76
2023/03/24 04:27:38;;;;;;;10.23;5.13;;;7.00;99.90;6.30;99211;;;;593697;238;24054;-77
2023/03/24 04:30:13;;;;;;;13.50;5.67;;;7.00;99.90;6.20;99204;;;;593308;238;24077;-78
2023/03/24 04:32:57;;;;;;;9.83;6.27;;;7.00;99.90;6.20;99202;;;;593352;238;24076;-78
2023/03/24 04:35:35;;;;;;;11.63;6.00;;;7.00;99.90;6.30;99196;;;;593415;238;24071;-77
2023/03/24 04:38:05;;;;;;;8.47;5.70;;;7.00;99.90;6.20;99192;;;;592490;238;24014;-77
2023/03/24 04:40:33;;;;;;;10.30;5.73;;;7.00;99.90;6.30;99194;;;;593478;238;25107;-76
2023/03/24 04:43:04;;;;;;;11.13;6.00;;;7.00;99.90;6.30;99191;;;;592656;238;24086;-77
2023/03/24 04:45:34;;;;;;;8.57;6.10;;;7.10;99.90;6.30;99187;;;;593419;238;24050;-78
2023/03/24 04:48:00;;;;;;;14.27;6.83;;;7.10;99.90;6.30;99188;;;;591887;238;24049;-80
2023/03/24 04:50:33;;;;;;;9.73;5.73;;;7.10;99.90;6.30;99186;;;;590958;238;24072;-78
2023/03/24 04:53:00;;;;;;;12.70;7.57;;;7.10;99.90;6.30;99185;;;;592917;238;24044;-78
2023/03/24 04:55:56;;;;;;;11.67;6.40;;;7.10;99.90;6.30;99183;;;;593433;238;24104;-76
2023/03/24 04:58:28;;;;;;;11.00;7.10;;;7.10;99.90;6.40;99179;;;;593457;238;24040;-78
2023/03/24 05:00:54;;;;;;;13.63;6.83;;;7.10;99.90;6.40;99177;;;;592827;238;24051;-76
2023/03/24 05:03:20;;;;;;;16.40;6.53;;;7.20;99.90;6.40;99171;;;;593671;238;24054;-76
2023/03/24 05:05:50;;;;;;;11.77;7.87;;;7.20;99.90;6.40;99167;;;;593300;238;24092;-77
2023/03/24 05:08:16;;;;;;;12.57;7.40;;;7.20;99.90;6.50;99163;;;;593207;238;24053;-79
2023/03/24 05:10:43;;;;;;;11.87;7.47;;;7.30;99.90;6.50;99161;;;;593418;238;24054;-79
2023/03/24 05:13:15;;;;;;;10.70;7.20;;;7.30;99.90;6.60;99163;;;;593767;238;24086;-80
2023/03/24 05:15:40;;;;;;;11.33;6.47;;;7.30;99.90;6.60;99161;;;;593225;238;24083;-79
2023/03/24 05:18:07;;;;;;;12.00;6.67;;;7.40;99.90;6.70;99155;;;;593587;238;24047;-79
2023/03/24 05:20:36;;;;;;;9.60;6.27;;;7.50;99.90;6.70;99153;;;;594259;237;24038;-79
2023/03/24 05:23:07;;;;;;;10.03;6.17;;;7.50;99.90;6.80;99148;;;;594743;238;24032;-80
2023/03/24 05:25:32;;;;;;;8.10;5.30;;;7.50;99.90;6.80;99144;;;;593982;238;24052;-78
2023/03/24 05:28:03;;;;;;;10.43;6.27;;;7.60;99.90;6.80;99139;;;;594259;238;24051;-79
2023/03/24 05:30:31;;;;;;;10.87;6.37;;;7.60;99.90;6.90;99131;;;;593799;238;24038;-79
2023/03/24 05:32:55;;;;;;;9.50;5.53;;;7.70;99.90;6.90;99138;;;;593422;238;24040;-79
2023/03/24 05:35:23;;;;;;;8.80;5.73;;;7.70;99.90;7.00;99137;;;;593951;238;25105;-77
2023/03/24 05:37:51;;;;;;;9.90;6.30;;;7.80;99.90;7.00;99132;;;;593801;238;24049;-79
2023/03/24 05:40:20;;;;;;;12.07;6.50;;;7.90;99.90;7.10;99131;;;;593656;238;24102;-79
2023/03/24 05:42:51;;;;;;;9.53;6.23;;;7.90;99.90;7.20;99128;;;;593552;238;24054;-79
2023/03/24 05:45:19;;;;;;;7.97;5.00;;;8.00;99.90;7.30;99132;;;;593729;238;24073;-78
2023/03/24 05:47:50;;;;;;;8.57;6.07;;;8.00;99.90;7.40;99124;;;;593575;238;24032;-78
2023/03/24 05:50:15;;;;;;;10.47;5.97;;;8.20;99.90;7.50;99123;;;;593150;238;24105;-78
2023/03/24 05:52:47;;;;;;;7.57;6.07;;;8.30;99.90;7.60;99123;;;;593487;238;24062;-79
2023/03/24 05:55:11;;;;;;;8.10;6.47;;;8.30;99.90;7.80;99113;;;;590811;238;24052;-77
2023/03/24 05:57:39;;;;;;;8.27;5.43;;;8.50;99.90;7.80;99116;;;;593588;238;25094;-77
2023/03/24 06:00:15;;;;;;;9.93;6.30;;;8.60;99.90;7.90;99107;;;;593362;238;24102;-76
2023/03/24 06:02:38;;;;;;;8.10;5.50;;;8.70;99.90;8.00;99111;;;;593300;238;24051;-77
2023/03/24 06:05:07;;;;;;;10.93;5.57;;;8.90;99.90;8.10;99104;;;;593263;238;24043;-80
2023/03/24 06:07:34;;;;;;;6.40;5.03;;;8.80;99.90;8.10;99093;;;;593185;238;24032;-79
2023/03/24 06:10:06;;;;;;;6.37;5.23;;;8.90;99.90;8.10;99098;;;;593393;238;24116;-81
2023/03/24 06:12:32;;;;;;;8.27;5.40;;;8.90;99.90;8.10;99095;;;;593177;238;24093;-79
2023/03/24 06:15:03;;;;;;;8.23;5.13;;;8.90;99.90;8.00;99099;;;;593062;238;24045;-78
2023/03/24 06:17:32;;;;;;;12.60;5.77;;;8.90;99.90;8.10;99097;;;;593079;238;24160;-79
2023/03/24 06:20:13;;;;;;;9.07;6.20;;;8.90;99.90;8.00;99097;;;;593020;238;24036;-80
2023/03/24 06:22:25;;;;;;;6.30;4.67;;;8.90;99.90;8.10;99105;;;;592133;238;24059;-77
2023/03/24 06:24:55;;;;;;;8.60;6.70;;;8.90;99.90;8.00;99093;;;;593671;238;24035;-78
2023/03/24 06:27:24;;;;;;;10.37;6.50;;;8.90;99.90;8.10;99094;;;;593476;238;24090;-79
2023/03/24 06:29:51;;;;;;;7.73;5.90;;;8.90;99.90;8.10;99092;;;;593428;238;24035;-80
2023/03/24 06:32:16;;;;;;;9.33;6.23;;;8.90;99.90;8.20;99083;;;;594038;237;24050;-81
2023/03/24 06:34:45;;;;;;;9.90;5.57;;;9.00;99.90;8.20;99078;;;;592881;238;24062;-82
2023/03/24 06:37:13;;;;;;;12.30;6.30;;;9.00;99.90;8.20;99083;;;;594693;238;24075;-80
2023/03/24 06:39:41;;;;;;;12.40;6.40;;;9.10;99.90;8.30;99086;;;;594515;238;24100;-79
2023/03/24 06:42:09;;;;;;;10.90;6.73;;;9.10;99.90;8.30;99083;;;;594315;238;24037;-78
2023/03/24 06:44:37;;;;;;;10.77;6.43;;;9.20;99.90;8.40;99078;;;;594288;238;24028;-78
2023/03/24 06:47:05;;;;;;;7.27;5.60;;;9.20;99.90;8.50;99071;;;;594332;238;24032;-76
2023/03/24 06:49:33;;;;;;;17.03;7.13;;;9.30;99.90;8.60;99070;;;;594292;238;24021;-81
2023/03/24 06:52:01;;;;;;;9.00;6.07;;;9.40;99.90;8.70;99063;;;;593671;238;24212;-81
2023/03/24 06:54:29;;;;;;;8.83;6.97;;;9.50;99.90;8.80;99054;;;;593575;238;24074;-77
2023/03/24 06:56:57;;;;;;;12.27;7.57;;;9.60;99.90;8.90;99047;;;;593624;238;24073;-81
2023/03/24 06:59:27;;;;;;;10.93;7.60;;;9.80;99.90;9.00;99033;;;;593558;238;24100;-81
2023/03/24 07:01:56;;;;;;;12.53;7.30;;;9.80;99.90;9.20;99041;;;;593658;238;24063;-78
2023/03/24 07:04:24;;;;;;;10.97;8.03;;;10.00;99.90;9.30;99029;;;;593350;238;24090;-80
2023/03/24 07:06:49;;;;;;;9.87;8.00;;;10.10;99.90;9.50;99024;;;;593364;238;24116;-78
2023/03/24 07:09:20;;;;;;;11.47;8.50;;;10.30;99.90;9.60;99030;;;;593508;238;24054;-77
2023/03/24 07:11:49;;;;;;;14.57;8.13;;;10.40;99.90;9.60;99027;;;;592801;238;24048;-78
2023/03/24 07:14:13;;;;;;;11.87;8.87;;;10.40;99.90;9.70;99032;;;;592995;238;24035;-78
2023/03/24 07:16:41;;;;;;;14.27;8.30;;;10.50;99.90;9.80;99026;;;;593704;238;24082;-77
2023/03/24 07:19:09;;;;;;;12.90;9.43;;;10.60;99.90;9.90;99016;;;;593769;238;24036;-76
2023/03/24 07:21:40;;;;;;;9.80;8.03;;;10.70;99.90;10.10;99012;;;;593682;238;24089;-76
2023/03/24 07:24:05;;;;;;;12.63;9.40;;;10.90;99.90;10.40;98996;;;;592955;238;24051;-76
2023/03/24 07:26:32;;;;;;;13.30;8.67;;;11.10;99.90;10.80;99003;;;;593444;238;24035;-78
2023/03/24 07:29:00;;;;;;;12.53;8.83;;;11.50;99.90;11.00;98997;;;;593382;238;24017;-77
2023/03/24 07:31:32;;;;;;;14.73;8.30;;;11.80;99.90;11.10;98993;;;;593544;238;24054;-78
2023/03/24 07:33:56;;;;;;;10.97;8.30;;;11.90;99.90;11.30;98992;;;;593077;238;24062;-78
2023/03/24 07:36:24;;;;;;;10.10;8.60;;;12.10;99.90;11.60;98984;;;;593391;238;25187;-80
2023/03/24 07:38:52;;;;;;;16.20;7.90;;;12.30;99.90;11.80;98986;;;;593540;238;24066;-77
2023/03/24 07:41:26;;;;;;;13.60;7.80;;;12.60;99.90;12.10;98987;;;;593503;238;24019;-78
2023/03/24 07:43:51;;;;;;;11.27;6.77;;;12.80;99.90;12.50;98993;;;;592239;237;24043;-80
2023/03/24 07:46:19;;;;;;;21.63;7.63;;;13.20;99.90;12.60;98984;;;;594730;238;24039;-77
2023/03/24 07:48:47;;;;;;;27.93;10.00;;;13.40;99.90;12.70;98980;;;;594611;238;24092;-79
2023/03/24 07:51:18;;;;;;;13.40;7.67;;;13.50;99.90;12.80;98970;;;;587383;238;40026;-77
2023/03/24 07:53:46;;;;;;;10.60;7.93;;;13.60;99.90;12.80;98969;;;;588413;238;45878;-79
2023/03/24 07:56:13;;;;;;;10.13;6.83;;;13.70;99.90;12.80;98960;;;;593676;238;24040;-79
2023/03/24 07:58:38;;;;;;;7.97;5.57;;;13.70;99.90;12.90;98952;;;;593626;238;24048;-79
2023/03/24 08:01:13;;;;;;;7.50;5.73;;;13.70;99.90;12.90;98952;;;;594289;238;24031;-80
2023/03/24 08:03:41;;;;;;;6.97;5.27;;;13.70;99.90;12.90;98946;;;;593316;238;24065;-78
2023/03/24 08:06:05;;;;;;;8.57;5.30;;;13.70;99.90;12.90;98948;;;;593637;238;24023;-77
2023/03/24 08:08:33;;;;;;;5.60;5.10;;;13.70;99.90;12.90;98935;;;;594210;238;24057;-77
2023/03/24 08:11:01;;;;;;;5.53;4.80;;;13.70;99.90;12.90;98933;;;;594155;238;24023;-78
2023/03/24 08:13:32;;;;;;;5.83;5.27;;;13.70;99.90;13.00;98925;;;;594362;238;24030;-78
2023/03/24 08:15:57;;;;;;;6.03;5.30;;;13.70;99.90;12.90;98924;;;;592113;238;24021;-78
2023/03/24 08:18:25;;;;;;;6.77;5.33;;;13.60;99.90;12.80;98925;;;;594013;238;24037;-78
2023/03/24 08:20:56;;;;;;;7.63;5.83;;;13.50;99.90;12.80;98925;;;;593709;238;24071;-79
2023/03/24 08:23:24;;;;;;;8.02;6.22;;;13.50;99.90;12.70;98925;;;;589109;238;35021;-76
2023/03/24 08:25:52;;;;;;;8.97;5.47;;;13.50;99.90;12.60;98911;;;;594955;238;24048;-78
2023/03/24 08:28:21;;;;;;;5.50;4.97;;;13.30;99.90;12.60;98916;;;;594159;238;24034;-77
2023/03/24 08:30:50;;;;;;;8.73;6.97;;;13.30;99.90;12.50;98906;;;;589200;238;35100;-78
2023/03/24 08:33:17;;;;;;;6.90;6.00;;;13.20;99.90;12.50;98900;;;;594192;238;24036;-78
2023/03/24 08:35:45;;;;;;;6.60;5.70;;;13.20;99.90;12.50;98907;;;;594193;238;24023;-80
2023/03/24 08:38:15;;;;;;;7.73;5.83;;;13.20;99.90;12.40;98908;;;;594262;238;24067;-77
2023/03/24 08:40:46;;;;;;;7.63;5.83;;;13.20;99.90;12.50;98905;;;;594038;238;24047;-78
2023/03/24 08:43:11;;;;;;;10.43;5.47;;;13.20;99.90;12.60;98905;;;;593656;238;24039;-79
2023/03/24 08:45:39;;;;;;;11.17;6.47;;;13.20;99.90;12.70;98906;;;;593819;238;24118;-78
2023/03/24 08:48:09;;;;;;;8.93;6.23;;;13.30;99.90;12.70;98894;;;;593852;238;24021;-79
2023/03/24 08:50:34;;;;;;;7.17;6.37;;;13.40;99.90;12.90;98883;;;;593469;238;24039;-77
2023/03/24 08:53:05;;;;;;;9.77;6.67;;;13.60;99.90;13.10;98886;;;;593779;238;24116;-77
2023/03/24 08:55:30;;;;;;;8.40;7.47;;;13.80;99.90;13.30;98875;;;;594160;237;24069;-77
2023/03/24 08:58:02;;;;;;;12.33;7.13;;;14.00;99.90;13.30;98870;;;;594951;238;24041;-78
2023/03/24 09:00:27;;;;;;;8.13;7.33;;;14.00;99.90;13.50;98854;;;;594594;238;24062;-77
2023/03/24 09:02:59;;;;;;;10.67;8.13;;;14.20;99.90;13.70;98853;;;;594520;238;24023;-78
2023/03/24 09:05:26;;;;;;;9.37;7.03;;;14.40;99.90;13.80;98844;;;;603774;238;24029;-78
2023/03/24 09:07:51;;;;;;;7.77;7.03;;;14.60;99.90;13.80;98838;;;;592058;238;24040;-78
2023/03/24 09:10:21;;;;;;;6.97;6.23;;;14.50;99.90;13.70;98837;;;;594349;238;24047;-77
2023/03/24 09:12:47;;;;;;;9.60;5.97;;;14.30;99.90;13.50;98835;;;;594090;238;24055;-76
2023/03/24 09:15:15;;;;;;;7.47;6.67;;;14.30;99.90;13.30;98830;;;;593994;238;24029;-80
2023/03/24 09:17:43;;;;;;;7.13;6.43;;;14.10;99.90;13.10;98832;;;;594051;238;24035;-77
2023/03/24 09:20:11;;;;;;;6.53;6.03;;;13.90;99.90;12.90;98829;;;;595874;241;24052;-81
2023/03/24 09:22:39;;;;;;;7.63;6.60;;;13.70;99.90;12.80;98814;;;;581093;242;24055;-79
2023/03/24 09:25:10;;;;;;;8.40;6.40;;;13.50;99.90;12.80;98808;;;;592268;239;24067;-79
2023/03/24 09:27:38;;;;;;;6.87;6.17;;;13.50;99.90;12.90;98808;;;;582693;242;24107;-76
2023/03/24 09:30:03;;;;;;;12.90;6.07;;;13.60;99.90;13.20;98808;;;;582712;242;24101;-81
2023/03/24 09:32:32;;;;;;;9.40;5.97;;;13.80;99.90;13.40;98807;;;;582932;243;24081;-80
2023/03/24 09:35:03;;;;;;;9.63;6.13;;;14.40;99.90;13.90;98803;;;;582834;243;24058;-79
2023/03/24 09:37:30;;;;;;;8.00;6.17;;;14.40;99.90;14.30;98797;;;;586334;243;24082;-79
2023/03/24 09:40:01;;;;;;;11.10;6.13;;;14.90;99.90;14.70;98784;;;;582215;243;24064;-79
2023/03/24 09:42:28;;;;;;;6.97;6.27;;;15.30;99.90;15.10;98780;;;;581094;243;24128;-79
2023/03/24 09:44:59;;;;;;;7.80;5.97;;;15.70;99.90;15.50;98766;;;;582511;243;24063;-81
2023/03/24 09:47:40;;;;;;;9.80;6.70;;;16.10;99.90;16.30;98764;;;;582474;243;24088;-81
2023/03/24 09:50:07;;;;;;;6.23;5.70;;;16.80;99.90;17.10;98754;;;;582793;243;24110;-80
2023/03/24 09:52:37;;;;;;;6.63;5.93;;;17.70;99.90;18.00;98744;;;;582283;243;24121;-78
2023/03/24 09:55:09;;;;;;;8.47;6.07;;;18.70;99.90;18.40;98738;;;;582486;243;24106;-79
2023/03/24 09:57:42;;;;;;;11.87;6.00;;;19.30;99.90;18.70;98738;;;;582326;243;24102;-79
2023/03/24 10:00:26;;;;;;;5.53;4.97;;;19.70;99.90;18.90;98732;;;;582546;243;24140;-78
2023/03/24 10:02:57;;;;;;;7.17;5.77;;;19.90;99.90;18.90;98720;;;;582909;243;24080;-79
2023/03/24 10:05:39;;;;;;;5.97;5.20;;;20.00;99.90;19.50;98726;;;;582566;243;23095;-80
2023/03/24 10:08:22;;;;;;;7.10;5.33;;;20.40;99.90;20.40;98719;;;;584666;242;23078;-79
2023/03/24 10:10:55;;;;;;;6.33;5.57;;;21.50;99.90;21.20;98721;;;;584185;242;24066;-76
2023/03/24 10:13:54;;;;;;;6.67;5.33;;;22.40;99.90;21.30;98714;;;;582834;242;24127;-79
2023/03/24 10:16:33;;;;;;;5.53;5.03;;;22.70;99.90;21.30;98712;;;;583087;242;24166;-78
2023/03/24 10:19:38;;;;;;;5.73;5.23;;;22.80;99.90;21.00;98720;;;;582529;242;24136;-79
2023/03/24 10:22:28;;;;;;;5.60;5.10;;;22.40;99.90;20.10;98719;;;;583048;242;24099;-79
2023/03/24 10:25:01;;;;;;;6.00;5.47;;;21.70;99.90;19.30;98732;;;;582459;242;23106;-80
2023/03/24 10:27:34;;;;;;;9.23;5.53;;;20.70;99.90;18.70;98725;;;;582851;242;24140;-79
2023/03/24 10:30:17;;;;;;;8.83;5.83;;;19.90;99.90;18.60;98715;;;;582978;242;24119;-77
2023/03/24 10:32:45;;;;;;;6.23;5.63;;;19.60;99.90;18.50;98722;;;;581906;242;24076;-78
2023/03/24 10:35:24;;;;;;;6.13;5.60;;;19.30;99.90;18.30;98718;;;;583110;242;23092;-77
2023/03/24 10:37:52;;;;;;;6.87;6.27;;;19.10;99.90;18.30;98706;;;;583098;242;24129;-78
2023/03/24 10:40:21;;;;;;;5.50;5.00;;;19.00;99.90;18.20;98719;;;;583091;242;24180;-79
2023/03/24 10:42:49;;;;;;;6.20;5.70;;;18.90;99.90;17.90;98707;;;;582628;243;24099;-77
2023/03/24 10:45:20;;;;;;;5.93;5.20;;;18.70;99.90;17.70;98707;;;;582685;243;24089;-78
2023/03/24 10:47:50;;;;;;;7.37;5.90;;;18.40;99.90;17.70;98716;;;;582090;243;24064;-76
2023/03/24 10:50:19;;;;;;;6.63;5.83;;;18.20;99.90;17.60;98718;;;;582401;243;24219;-77
2023/03/24 10:52:46;;;;;;;6.40;5.57;;;18.20;99.90;17.50;98715;;;;582503;243;24075;-78
2023/03/24 10:55:22;;;;;;;5.90;5.30;;;18.10;99.90;17.60;98715;;;;582601;243;24076;-77
2023/03/24 10:57:46;;;;;;;6.63;5.90;;;18.20;99.90;17.80;98714;;;;582487;243;24105;-78
2023/03/24 11:00:18;;;;;;;7.23;5.70;;;18.40;99.90;17.80;98710;;;;583088;243;24090;-77
2023/03/24 11:02:45;;;;;;;5.20;4.80;;;18.40;99.90;17.80;98708;;;;582000;243;24122;-78
2023/03/24 11:05:16;;;;;;;6.60;5.13;;;18.40;99.90;17.90;98719;;;;582018;243;24078;-78
2023/03/24 11:07:47;;;;;;;5.93;5.23;;;18.50;99.90;17.90;98714;;;;583203;243;24100;-81
2023/03/24 11:10:20;;;;;;;5.50;4.90;;;18.40;99.90;17.80;98713;;;;583402;243;24076;-78
2023/03/24 11:12:53;;;;;;;5.73;5.13;;;18.40;99.90;17.70;98709;;;;582332;243;24134;-76
2023/03/24 11:15:27;;;;;;;10.80;5.13;;;18.30;99.90;17.70;98720;;;;582050;243;24157;-79
2023/03/24 11:17:57;;;;;;;4.83;4.40;;;18.40;99.90;17.80;98710;;;;581946;243;24070;-78
2023/03/24 11:20:31;;;;;;;6.00;4.73;;;18.40;99.90;17.80;98714;;;;584054;242;23094;-79
2023/03/24 11:23:03;;;;;;;7.30;4.83;;;18.40;99.90;17.80;98720;;;;583337;242;24150;-78
2023/03/24 11:25:31;;;;;;;5.17;4.70;;;18.40;99.90;17.60;98723;;;;583547;242;23187;-77
2023/03/24 11:28:01;;;;;;;4.50;4.10;;;18.30;99.90;17.60;98712;;;;582742;242;24107;-77
2023/03/24 11:30:44;;;;;;;8.73;4.90;;;18.20;99.90;17.60;98708;;;;582637;242;24070;-79
2023/03/24 11:33:33;;;;;;;4.50;4.10;;;18.20;99.90;17.70;98710;;;;582973;242;24110;-77
2023/03/24 11:35:58;;;;;;;6.73;5.10;;;18.30;99.90;17.80;98703;;;;582615;242;23139;-80
2023/03/24 11:38:29;;;;;;;9.50;8.50;;;18.40;99.90;17.90;98705;;;;583227;242;24052;-79
2023/03/24 11:41:03;;;;;;;7.10;4.63;;;18.40;99.90;17.90;98692;;;;582618;242;24168;-80
2023/03/24 11:43:28;;;;;;;4.30;3.97;;;18.50;99.90;17.90;98689;;;;582268;242;23149;-81